Time;durP1;ratioP1;P1;durP2;ratioP2;P2;SDS_P1;SDS_P2;PMS_P1;PMS_P2;Temp;Humidity;BMP_temperature;BMP_pressure;BME280_temperature;BME280_humidity;BME280_pressure;Samples;Min_cycle;Max_cycle;Signal;HPM_P1;HPM_P2
2023/01/08 02:31:48;;;;;;;21.02;11.50;;;;;;;0.31;100.00;92347.41;2565673;22;20027;-85
2023/01/08 02:32:49;;;;;;;17.42;10.43;;;;;;;0.22;100.00;92348.53;2547706;23;20017;-84
2023/01/08 02:33:55;;;;;;;18.08;10.40;;;;;;;0.26;100.00;92351.16;2523308;23;20010;-85
2023/01/08 02:35:04;;;;;;;16.77;10.50;;;;;;;0.18;100.00;92347.00;2536914;23;20130;-83
2023/01/08 02:36:24;;;;;;;17.80;10.50;;;;;;;0.28;100.00;92356.06;2536880;23;20465;-84
2023/01/08 02:37:33;;;;;;;16.42;9.70;;;;;;;0.32;100.00;92359.47;2531211;23;20010;-85
2023/01/08 02:38:35;;;;;;;17.92;10.75;;;;;;;0.32;100.00;92354.94;2526548;23;20010;-85
2023/01/08 02:39:50;;;;;;;18.27;10.10;;;;;;;0.31;100.00;92353.44;2523686;23;20032;-83
2023/01/08 02:41:09;;;;;;;15.27;9.20;;;;;;;0.44;100.00;92345.97;2529381;23;20081;-85
2023/01/08 02:42:26;;;;;;;14.85;9.13;;;;;;;0.37;100.00;92348.59;2536159;23;20006;-84
2023/01/08 02:43:46;;;;;;;14.32;9.10;;;;;;;0.32;100.00;92349.69;2537125;23;19998;-83
2023/01/08 02:45:13;;;;;;;17.00;9.52;;;;;;;0.29;100.00;92349.69;2542997;23;20045;-84
2023/01/08 02:46:26;;;;;;;15.45;8.43;;;;;;;0.26;100.00;92343.28;2553104;23;20458;-84
2023/01/08 02:48:06;;;;;;;14.38;9.00;;;;;;;0.28;100.00;92345.56;2537635;23;20089;-84
2023/01/08 02:49:14;;;;;;;12.07;8.05;;;;;;;0.29;100.00;92350.44;2506361;23;20015;-84
2023/01/08 02:50:36;;;;;;;12.75;8.18;;;;;;;0.27;100.00;92338.78;2500375;23;20026;-84
2023/01/08 02:51:49;;;;;;;13.68;8.02;;;;;;;0.24;100.00;92332.38;2502961;23;20011;-84
2023/01/08 02:52:59;;;;;;;17.17;8.43;;;;;;;0.27;100.00;92329.03;2489229;23;20008;-84
2023/01/08 02:54:07;;;;;;;;;;;;;;;0.30;100.00;92322.25;2479552;23;20570;-83
2023/01/08 02:55:12;;;;;;;12.43;7.50;;;;;;;0.29;100.00;92334.66;2530131;23;20291;-84
2023/01/08 02:56:22;;;;;;;14.23;8.30;;;;;;;0.33;100.00;92326.78;2524568;23;20029;-85
2023/01/08 02:57:51;;;;;;;12.65;8.05;;;;;;;0.31;100.00;92319.28;2527084;23;20010;-84
2023/01/08 02:58:53;;;;;;;11.75;7.35;;;;;;;0.37;100.00;92317.03;2529067;23;20033;-84
2023/01/08 02:59:55;;;;;;;15.57;7.38;;;;;;;0.49;100.00;92314.84;2541249;23;20025;-84
2023/01/08 03:00:58;;;;;;;13.50;8.18;;;;;;;0.45;100.00;92314.06;2524351;23;20006;-86
2023/01/08 03:02:07;;;;;;;13.63;8.55;;;;;;;0.45;100.00;92315.94;2536372;23;20021;-85
2023/01/08 03:03:28;;;;;;;10.88;7.95;;;;;;;0.43;100.00;92313.66;2549518;23;20005;-84
2023/01/08 03:04:36;;;;;;;14.68;8.90;;;;;;;0.42;100.00;92314.81;2559876;23;20088;-83
2023/01/08 03:05:39;;;;;;;12.95;8.45;;;;;;;0.41;100.00;92312.56;2547324;23;20060;-84
2023/01/08 03:06:42;;;;;;;13.13;8.77;;;;;;;0.45;100.00;92310.69;2535775;23;20024;-84
2023/01/08 03:07:43;;;;;;;13.15;8.38;;;;;;;0.49;100.00;92319.34;2523598;23;20006;-84
2023/01/08 03:08:46;;;;;;;12.43;8.50;;;;;;;0.55;100.00;92315.22;2523152;23;20002;-84
2023/01/08 03:09:48;;;;;;;12.98;8.82;;;;;;;0.56;100.00;92311.47;2536072;23;20010;-84
2023/01/08 03:10:54;;;;;;;11.63;8.43;;;;;;;0.64;100.00;92312.97;2523166;23;20077;-84
2023/01/08 03:12:02;;;;;;;13.52;7.97;;;;;;;0.64;100.00;92312.97;2548545;23;20429;-84
2023/01/08 03:13:11;;;;;;;12.98;8.18;;;;;;;0.56;100.00;92316.72;2536496;23;20006;-85
2023/01/08 03:14:22;;;;;;;12.52;8.32;;;;;;;0.61;100.00;92310.34;2525803;23;20045;-83
2023/01/08 03:15:31;;;;;;;13.20;7.78;;;;;;;0.66;100.00;92317.84;2527337;23;20337;-83
2023/01/08 03:16:50;;;;;;;11.20;8.07;;;;;;;0.65;100.00;92311.84;2549261;23;20052;-84
2023/01/08 03:17:56;;;;;;;12.23;8.38;;;;;;;0.68;100.00;92311.13;2547467;23;20009;-84
2023/01/08 03:19:08;;;;;;;10.65;8.20;;;;;;;0.76;100.00;92311.88;2535797;23;20016;-83
2023/01/08 03:20:14;;;;;;;12.63;8.10;;;;;;;0.74;100.00;92312.25;2527362;23;20010;-83
2023/01/08 03:21:18;;;;;;;13.65;8.57;;;;;;;0.71;100.00;92307.00;2525380;23;20529;-84
2023/01/08 03:22:21;;;;;;;13.32;8.90;;;;;;;0.70;100.00;92306.25;2536487;23;20018;-83
2023/01/08 03:23:25;;;;;;;14.20;8.57;;;;;;;0.69;100.00;92301.34;2547576;23;20005;-84
2023/01/08 03:24:32;;;;;;;14.88;9.18;;;;;;;0.68;100.00;92295.34;2535436;23;20393;-84
2023/01/08 03:25:38;;;;;;;14.70;9.73;;;;;;;0.72;100.00;92296.09;2537552;23;20033;-84
2023/01/08 03:26:42;;;;;;;14.82;9.20;;;;;;;0.76;100.00;92301.38;2548584;23;20005;-83
2023/01/08 03:27:48;;;;;;;12.82;9.05;;;;;;;0.71;100.00;92314.88;2531946;23;20021;-84
2023/01/08 03:28:52;;;;;;;13.80;9.45;;;;;;;0.71;100.00;92313.00;2512367;23;20002;-84
2023/01/08 03:29:57;;;;;;;13.75;9.27;;;;;;;0.70;100.00;92314.13;2522028;23;20094;-84
2023/01/08 03:30:59;;;;;;;15.68;8.98;;;;;;;0.93;100.00;92313.03;2521060;23;20025;-83
2023/01/08 03:32:05;;;;;;;12.48;9.05;;;;;;;1.13;100.00;92319.44;2508772;23;20022;-85
2023/01/08 03:33:10;;;;;;;13.38;9.18;;;;;;;1.00;100.00;92308.50;2510321;23;20017;-84
2023/01/08 03:34:13;;;;;;;17.60;9.95;;;;;;;0.97;100.00;92308.53;2521645;23;20030;-84
2023/01/08 03:35:19;;;;;;;13.80;9.63;;;;;;;1.11;100.00;92305.91;2532652;23;20009;-83
2023/01/08 03:36:26;;;;;;;14.93;9.63;;;;;;;0.98;100.00;92308.16;2521322;23;20517;-84
2023/01/08 03:37:41;;;;;;;14.52;8.73;;;;;;;0.92;100.00;92309.66;2510760;23;20007;-84
2023/01/08 03:38:49;;;;;;;15.07;8.75;;;;;;;1.02;100.00;92287.13;2523117;23;20061;-83
2023/01/08 03:40:08;;;;;;;14.60;8.63;;;;;;;0.93;100.00;92294.63;2511242;23;20006;-84
2023/01/08 03:41:13;;;;;;;14.10;8.93;;;;;;;0.96;100.00;92299.13;2527920;23;20006;-83
2023/01/08 03:42:18;;;;;;;12.25;8.43;;;;;;;0.91;100.00;92318.66;2521209;23;20006;-84
2023/01/08 03:43:19;;;;;;;13.98;8.65;;;;;;;0.89;100.00;92326.19;2509804;23;20006;-84
2023/01/08 03:44:20;;;;;;;11.82;8.63;;;;;;;0.95;100.00;92331.81;2519863;23;20026;-84
2023/01/08 03:45:23;;;;;;;11.90;8.13;;;;;;;0.86;100.00;92331.44;2508575;23;20025;-84
2023/01/08 03:46:31;;;;;;;12.88;9.02;;;;;;;0.91;100.00;92333.69;2521205;23;20422;-84
2023/01/08 03:47:34;;;;;;;13.30;8.75;;;;;;;0.91;100.00;92331.81;2544895;23;20005;-84
2023/01/08 03:48:37;;;;;;;10.30;7.82;;;;;;;0.96;100.00;92333.31;2532563;23;20093;-84
2023/01/08 03:49:42;;;;;;;12.23;8.55;;;;;;;0.98;100.00;92329.19;2520847;23;20009;-84
2023/01/08 03:50:43;;;;;;;11.77;8.35;;;;;;;1.05;100.00;92333.72;2520694;23;20006;-83
2023/01/08 03:51:46;;;;;;;11.10;8.13;;;;;;;1.08;100.00;92329.59;2520318;23;20014;-84
2023/01/08 03:52:47;;;;;;;11.55;8.13;;;;;;;0.95;100.00;92334.44;2520704;23;20602;-84
2023/01/08 03:53:52;;;;;;;14.13;8.95;;;;;;;1.03;100.00;92341.22;2508202;23;20017;-84
2023/01/08 03:54:53;;;;;;;13.05;9.35;;;;;;;1.03;100.00;92343.13;2510289;23;20011;-83
2023/01/08 03:55:56;;;;;;;13.20;8.57;;;;;;;1.06;100.00;92345.75;2520164;23;20398;-84
2023/01/08 03:56:57;;;;;;;15.73;9.50;;;;;;;1.05;100.00;92341.59;2520515;23;20436;-84
2023/01/08 03:57:58;;;;;;;14.00;9.40;;;;;;;1.04;100.00;92345.38;2520728;23;20034;-84
2023/01/08 03:58:59;;;;;;;12.63;8.35;;;;;;;0.99;100.00;92338.59;2519972;23;20030;-83
2023/01/08 04:00:00;;;;;;;12.75;8.50;;;;;;;0.95;100.00;92337.84;2508518;23;20037;-84
2023/01/08 04:01:01;;;;;;;12.55;9.40;;;;;;;1.13;100.00;92340.47;2508277;23;20094;-84
2023/01/08 04:02:02;;;;;;;10.88;8.90;;;;;;;1.38;100.00;92335.25;2519978;23;20006;-83
2023/01/08 04:03:03;;;;;;;14.52;9.10;;;;;;;1.23;100.00;92333.75;2520452;23;20021;-84
2023/01/08 04:04:05;;;;;;;15.18;9.07;;;;;;;1.17;100.00;92332.59;2520309;23;20633;-84
2023/01/08 04:05:08;;;;;;;13.93;9.23;;;;;;;1.04;100.00;92334.84;2520536;23;20785;-84
2023/01/08 04:06:09;;;;;;;11.35;8.00;;;;;;;1.04;100.00;92326.19;2509198;23;20022;-84
2023/01/08 04:07:11;;;;;;;10.85;8.02;;;;;;;1.03;100.00;92327.31;2520582;23;20359;-84
2023/01/08 04:08:12;;;;;;;13.18;9.60;;;;;;;1.02;100.00;92316.06;2532196;23;20369;-84
2023/01/08 04:09:12;;;;;;;13.50;8.77;;;;;;;1.20;100.00;92313.44;2519932;23;20033;-84
2023/01/08 04:10:13;;;;;;;14.93;9.40;;;;;;;1.19;100.00;92314.56;2508555;23;20418;-83
2023/01/08 04:11:15;;;;;;;12.68;8.48;;;;;;;1.20;100.00;92323.97;2508435;23;20003;-84
2023/01/08 04:12:16;;;;;;;10.73;8.07;;;;;;;1.14;100.00;92326.22;2508605;23;20015;-84
2023/01/08 04:13:17;;;;;;;12.23;7.88;;;;;;;1.14;100.00;92326.22;2508029;23;20343;-84
2023/01/08 04:14:18;;;;;;;10.60;8.23;;;;;;;1.14;100.00;92330.72;2507987;23;20006;-83
2023/01/08 04:15:19;;;;;;;12.93;8.13;;;;;;;1.08;100.00;92329.59;2508494;23;20003;-84
2023/01/08 04:16:21;;;;;;;9.27;6.43;;;;;;;1.03;100.00;92333.34;2520095;23;20003;-84
2023/01/08 04:17:22;;;;;;;11.43;6.80;;;;;;;0.97;100.00;92335.59;2520155;23;20345;-84
2023/01/08 04:18:23;;;;;;;9.15;6.97;;;;;;;1.03;100.00;92340.47;2508360;23;20009;-83
2023/01/08 04:19:24;;;;;;;9.93;7.05;;;;;;;1.03;100.00;92343.13;2520226;23;20026;-83
2023/01/08 04:20:25;;;;;;;10.50;7.35;;;;;;;1.00;100.00;92342.72;2531728;23;20735;-82
2023/01/08 04:21:26;;;;;;;13.48;7.55;;;;;;;1.07;100.00;92344.63;2519767;23;20006;-83
2023/01/08 04:22:27;;;;;;;11.15;7.45;;;;;;;1.07;100.00;92338.63;2520364;23;20010;-83
2023/01/08 04:23:28;;;;;;;10.77;7.97;;;;;;;1.07;100.00;92347.25;2532273;23;20002;-84
2023/01/08 04:24:29;;;;;;;13.82;8.10;;;;;;;1.04;100.00;92345.38;2532342;23;20515;-82
2023/01/08 04:25:30;;;;;;;11.23;8.05;;;;;;;1.03;100.00;92343.13;2531983;23;20001;-83
2023/01/08 04:26:31;;;;;;;10.70;7.22;;;;;;;1.08;100.00;92337.47;2508078;23;20040;-84
2023/01/08 04:27:32;;;;;;;9.38;7.30;;;;;;;1.17;100.00;92328.09;2508682;23;20003;-83
2023/01/08 04:28:34;;;;;;;9.85;6.63;;;;;;;1.12;100.00;92325.06;2508349;23;20018;-83
2023/01/08 04:29:35;;;;;;;9.48;6.65;;;;;;;1.18;100.00;92329.56;2520391;23;20122;-83
2023/01/08 04:30:36;;;;;;;7.60;5.40;;;;;;;1.36;100.00;92324.34;2520053;23;20010;-83
2023/01/08 04:31:38;;;;;;;7.13;4.97;;;;;;;1.31;100.00;92327.31;2507880;23;20023;-84
2023/01/08 04:32:39;;;;;;;8.55;4.95;;;;;;;1.59;100.00;92325.84;2520280;23;20017;-83
2023/01/08 04:33:41;;;;;;;7.95;4.30;;;;;;;1.62;100.00;92325.81;2520094;23;20010;-83
2023/01/08 04:34:41;;;;;;;5.00;4.03;;;;;;;1.76;100.00;92330.31;2508601;23;20081;-84
2023/01/08 04:35:42;;;;;;;7.28;4.20;;;;;;;1.63;100.00;92326.59;2508092;23;20009;-83
2023/01/08 04:36:43;;;;;;;5.97;3.95;;;;;;;1.77;100.00;92316.75;2508309;23;20010;-83
2023/01/08 04:37:44;;;;;;;8.32;3.78;;;;;;;1.77;100.00;92316.75;2519689;23;20018;-83
2023/01/08 04:38:45;;;;;;;4.13;3.20;;;;;;;1.81;100.00;92308.84;2519529;23;20002;-83
2023/01/08 04:39:46;;;;;;;4.10;3.25;;;;;;;1.86;100.00;92308.47;2520094;23;20065;-83
2023/01/08 04:40:47;;;;;;;6.13;3.70;;;;;;;1.93;100.00;92307.69;2519878;23;20006;-83
2023/01/08 04:41:48;;;;;;;3.10;2.70;;;;;;;2.11;100.00;92315.53;2520205;23;20003;-83
2023/01/08 04:42:49;;;;;;;4.35;3.15;;;;;;;2.20;100.00;92311.38;2508377;23;20085;-83
2023/01/08 04:43:50;;;;;;;6.20;3.47;;;;;;;2.22;100.00;92311.75;2519516;23;20010;-84
2023/01/08 04:44:51;;;;;;;5.38;3.10;;;;;;;2.25;100.00;92305.72;2531957;23;20014;-84
2023/01/08 04:45:56;;;;;;;5.47;2.95;;;;;;;2.25;100.00;92310.97;2532251;23;20074;-83
2023/01/08 04:46:57;;;;;;;5.03;2.90;;;;;;;2.35;100.00;92308.69;2520865;23;20006;-83
2023/01/08 04:47:58;;;;;;;3.08;2.60;;;;;;;2.42;100.00;92312.06;2508124;23;19999;-83
2023/01/08 04:48:59;;;;;;;3.47;2.60;;;;;;;2.38;100.00;92308.69;2519584;23;20051;-84
2023/01/08 04:50:00;;;;;;;4.70;2.95;;;;;;;2.46;100.00;92306.75;2531915;23;20053;-83
2023/01/08 04:51:03;;;;;;;4.13;3.00;;;;;;;2.47;100.00;92310.91;2532577;23;20002;-83
2023/01/08 04:52:04;;;;;;;3.50;2.92;;;;;;;2.44;100.00;92314.28;2520473;23;20006;-83
2023/01/08 04:53:05;;;;;;;4.78;3.13;;;;;;;2.39;100.00;92317.34;2508548;23;20003;-84
2023/01/08 04:54:06;;;;;;;6.53;3.15;;;;;;;2.43;100.00;92326.75;2519838;23;20006;-83
2023/01/08 04:55:08;;;;;;;4.07;3.42;;;;;;;2.42;100.00;92325.25;2507811;23;20007;-83
2023/01/08 04:56:10;;;;;;;9.02;3.40;;;;;;;2.45;100.00;92324.44;2508465;23;20090;-83
2023/01/08 04:57:11;;;;;;;4.85;2.92;;;;;;;2.48;100.00;92317.66;2508149;23;20030;-83
2023/01/08 04:58:12;;;;;;;4.18;2.85;;;;;;;2.50;100.00;92323.31;2519998;23;20006;-83
2023/01/08 04:59:12;;;;;;;6.07;3.03;;;;;;;2.52;100.00;92315.78;2532138;23;20041;-83
2023/01/08 05:00:14;;;;;;;4.43;2.85;;;;;;;2.58;100.00;92321.38;2519829;23;20006;-83
2023/01/08 05:01:19;;;;;;;3.20;2.63;;;;;;;2.58;100.00;92316.88;2531937;23;20080;-83
2023/01/08 05:02:20;;;;;;;5.35;2.88;;;;;;;2.72;100.00;92324.72;2531751;23;20010;-84
2023/01/08 05:03:21;;;;;;;4.18;2.50;;;;;;;2.87;100.00;92314.84;2520106;23;20003;-83
2023/01/08 05:04:22;;;;;;;4.38;2.38;;;;;;;2.98;100.00;92318.13;2532299;23;20056;-83
2023/01/08 05:05:23;;;;;;;4.28;2.55;;;;;;;2.96;100.00;92306.47;2520110;23;20462;-83
2023/01/08 05:06:25;;;;;;;2.67;2.13;;;;;;;3.01;100.00;92314.00;2531584;23;20006;-83
2023/01/08 05:07:26;;;;;;;3.45;1.85;;;;;;;3.07;100.00;92309.78;2532012;23;20010;-83
2023/01/08 05:08:27;;;;;;;2.33;2.03;;;;;;;3.06;100.00;92312.81;2531731;23;20080;-84
2023/01/08 05:09:28;;;;;;;4.30;2.20;;;;;;;3.08;100.00;92310.56;2532174;23;20001;-83
2023/01/08 05:10:29;;;;;;;4.32;2.15;;;;;;;3.30;100.00;92308.53;2519937;23;20085;-83
2023/01/08 05:11:30;;;;;;;2.17;1.60;;;;;;;3.36;100.00;92310.34;2508423;23;20090;-83
2023/01/08 05:12:31;;;;;;;2.33;2.05;;;;;;;3.70;100.00;92301.75;2507672;23;20010;-84
2023/01/08 05:13:32;;;;;;;5.13;2.03;;;;;;;3.57;100.00;92304.13;2507842;23;20006;-84
2023/01/08 05:14:33;;;;;;;2.50;1.80;;;;;;;3.60;100.00;92307.88;2519897;23;20041;-83
2023/01/08 05:15:36;;;;;;;3.03;1.90;;;;;;;3.82;100.00;92297.84;2519837;23;20054;-83
2023/01/08 05:16:37;;;;;;;2.90;1.40;;;;;;;3.90;100.00;92301.94;2520605;23;20014;-83
2023/01/08 05:17:38;;;;;;;4.65;1.92;;;;;;;3.78;100.00;92300.56;2531350;23;20077;-84
2023/01/08 05:18:39;;;;;;;2.25;1.95;;;;;;;3.62;100.00;92305.59;2530757;23;20001;-84
2023/01/08 05:19:40;;;;;;;2.45;2.15;;;;;;;3.53;100.00;92303.41;2519290;23;20026;-83
2023/01/08 05:20:41;;;;;;;3.08;1.83;;;;;;;3.47;100.00;92305.75;2519447;23;20014;-84
2023/01/08 05:21:42;;;;;;;3.25;1.98;;;;;;;3.41;100.00;92295.97;2519244;23;20006;-84
2023/01/08 05:22:43;;;;;;;2.03;1.85;;;;;;;3.38;100.00;92294.88;2507427;23;20007;-82
2023/01/08 05:23:46;;;;;;;2.22;1.77;;;;;;;3.37;100.00;92300.53;2519529;23;20006;-84
2023/01/08 05:24:47;;;;;;;4.70;2.05;;;;;;;3.36;100.00;92286.56;2520298;23;20496;-83
2023/01/08 05:25:48;;;;;;;2.20;1.88;;;;;;;3.37;100.00;92290.72;2507681;23;20003;-82
2023/01/08 05:26:49;;;;;;;2.60;1.90;;;;;;;3.43;100.00;92283.88;2507455;23;20014;-83
2023/01/08 05:27:51;;;;;;;2.97;1.60;;;;;;;3.44;100.00;92279.34;2530986;23;20064;-83
2023/01/08 05:28:52;;;;;;;3.72;2.15;;;;;;;3.36;100.00;92277.91;2519057;23;20394;-83
2023/01/08 05:29:53;;;;;;;4.15;1.60;;;;;;;3.38;100.00;92275.59;2519004;23;20085;-84
2023/01/08 05:30:55;;;;;;;2.25;1.90;;;;;;;3.35;100.00;92274.50;2518474;23;20010;-83
2023/01/08 05:31:57;;;;;;;1.92;1.73;;;;;;;3.40;100.00;92262.78;2530273;23;20025;-82
2023/01/08 05:32:59;;;;;;;2.78;1.67;;;;;;;3.39;100.00;92269.22;2519028;23;20444;-84
2023/01/08 05:34:00;;;;;;;3.30;1.50;;;;;;;3.34;100.00;92265.09;2519396;23;20515;-83
2023/01/08 05:35:02;;;;;;;3.20;1.85;;;;;;;3.35;100.00;92260.56;2542900;23;20326;-83
2023/01/08 05:36:05;;;;;;;2.38;1.98;;;;;;;3.32;100.00;92264.72;2542087;23;20089;-82
2023/01/08 05:37:06;;;;;;;1.70;1.60;;;;;;;3.30;100.00;92267.00;2530904;23;20113;-83
2023/01/08 05:38:07;;;;;;;2.33;1.70;;;;;;;3.26;100.00;92264.41;2519578;23;20081;-83
2023/01/08 05:39:08;;;;;;;2.40;1.73;;;;;;;3.30;100.00;92261.00;2519824;23;20035;-84
2023/01/08 05:40:09;;;;;;;2.70;1.80;;;;;;;3.36;100.00;92252.25;2519873;23;20002;-84
2023/01/08 05:41:10;;;;;;;2.35;1.77;;;;;;;3.33;100.00;92257.53;2520292;23;20032;-83
2023/01/08 05:42:11;;;;;;;2.45;1.67;;;;;;;3.33;100.00;92263.56;2531613;23;20041;-82
2023/01/08 05:43:12;;;;;;;2.58;1.60;;;;;;;3.28;100.00;92264.75;2519595;23;20434;-83
2023/01/08 05:44:13;;;;;;;3.40;1.75;;;;;;;3.30;100.00;92248.53;2519834;23;20469;-83
2023/01/08 05:45:15;;;;;;;2.97;1.55;;;;;;;3.32;100.00;92261.34;2519753;23;20394;-82
2023/01/08 05:46:16;;;;;;;4.00;1.80;;;;;;;3.32;100.00;92263.97;2520083;23;20014;-82
2023/01/08 05:47:17;;;;;;;2.67;1.70;;;;;;;3.41;100.00;92257.09;2519938;23;20029;-83
2023/01/08 05:48:18;;;;;;;2.67;1.70;;;;;;;3.38;100.00;92257.91;2519747;23;20029;-83
2023/01/08 05:49:20;;;;;;;2.08;1.55;;;;;;;3.40;100.00;92257.50;2519403;23;20009;-83
2023/01/08 05:50:21;;;;;;;2.42;2.00;;;;;;;3.41;100.00;92262.38;2531898;23;20013;-83
2023/01/08 05:51:22;;;;;;;2.80;2.10;;;;;;;3.43;100.00;92272.56;2519769;23;20025;-84
2023/01/08 05:52:24;;;;;;;2.55;1.60;;;;;;;3.53;100.00;92269.81;2519686;23;20176;-83
2023/01/08 05:53:25;;;;;;;2.55;1.40;;;;;;;3.69;100.00;92279.13;2520260;23;20017;-83
2023/01/08 05:54:26;;;;;;;1.38;1.08;;;;;;;3.59;100.00;92269.38;2531499;23;19998;-83
2023/01/08 05:55:27;;;;;;;1.92;1.15;;;;;;;3.63;100.00;92278.03;2507656;23;20014;-83
2023/01/08 05:56:35;;;;;;;3.50;1.42;;;;;;;3.67;100.00;92274.22;2507509;23;20021;-82
2023/01/08 05:57:36;;;;;;;1.13;1.00;;;;;;;3.74;100.00;92276.06;2510560;23;20042;-83
2023/01/08 05:58:37;;;;;;;1.15;1.05;;;;;;;3.82;100.00;92274.84;2508231;23;20030;-83
2023/01/08 05:59:38;;;;;;;2.08;0.90;;;;;;;3.85;100.00;92270.66;2508204;23;20007;-83
2023/01/08 06:00:39;;;;;;;1.48;1.05;;;;;;;3.76;100.00;92269.22;2508076;23;20017;-82
2023/01/08 06:01:40;;;;;;;1.83;1.05;;;;;;;3.69;100.00;92269.31;2507422;23;20007;-83
2023/01/08 06:02:48;;;;;;;2.13;1.10;;;;;;;3.63;100.00;92267.47;2507948;23;20462;-82
2023/01/08 06:03:49;;;;;;;1.83;1.20;;;;;;;3.68;100.00;92267.03;2510503;23;20045;-83
2023/01/08 06:04:50;;;;;;;2.67;1.10;;;;;;;3.58;100.00;92268.66;2507844;23;20469;-82
2023/01/08 06:05:51;;;;;;;3.72;1.10;;;;;;;3.52;100.00;92270.97;2507781;23;20006;-83
2023/01/08 06:06:52;;;;;;;2.35;1.73;;;;;;;3.50;100.00;92267.94;2519424;23;20510;-83
2023/01/08 06:07:52;;;;;;;1.60;1.50;;;;;;;3.64;100.00;92268.97;2519824;23;20011;-83
2023/01/08 06:08:53;;;;;;;2.95;1.45;;;;;;;3.62;100.00;92266.72;2508022;23;20006;-83
2023/01/08 06:09:54;;;;;;;1.40;1.00;;;;;;;3.71;100.00;92268.91;2507915;23;20010;-83
2023/01/08 06:11:03;;;;;;;1.00;0.85;;;;;;;3.68;100.00;92267.03;2519171;23;20003;-83
2023/01/08 06:12:04;;;;;;;1.75;1.13;;;;;;;3.62;100.00;92266.72;2509555;23;20069;-84
2023/01/08 06:13:09;;;;;;;1.17;1.00;;;;;;;3.64;100.00;92263.69;2506126;23;20021;-83
2023/01/08 06:14:10;;;;;;;1.92;1.60;;;;;;;3.56;100.00;92268.28;2507855;23;20006;-84
2023/01/08 06:15:11;;;;;;;1.17;1.00;;;;;;;3.58;100.00;92270.53;2518294;23;20081;-83
2023/01/08 06:16:12;;;;;;;1.23;1.08;;;;;;;3.54;100.00;92270.56;2507990;23;20493;-83
2023/01/08 06:17:15;;;;;;;2.35;1.52;;;;;;;3.49;100.00;92268.34;2519454;23;20006;-83
2023/01/08 06:18:17;;;;;;;1.75;1.30;;;;;;;3.49;100.00;92269.09;2531745;23;20152;-83
2023/01/08 06:19:18;;;;;;;1.15;1.00;;;;;;;3.62;100.00;92273.91;2518803;23;20342;-83
2023/01/08 06:20:19;;;;;;;1.25;1.10;;;;;;;3.62;100.00;92276.53;2519063;23;20006;-82
2023/01/08 06:21:20;;;;;;;1.05;1.05;;;;;;;3.59;100.00;92272.03;2519386;23;20014;-83
2023/01/08 06:22:21;;;;;;;1.70;1.20;;;;;;;3.54;100.00;92271.31;2507768;23;20003;-82
2023/01/08 06:23:22;;;;;;;1.45;1.35;;;;;;;3.64;100.00;92269.72;2519693;23;20041;-82
2023/01/08 06:24:23;;;;;;;2.65;2.45;;;;;;;3.60;100.00;92268.25;2507657;23;20062;-83
2023/01/08 06:25:24;;;;;;;2.63;1.77;;;;;;;3.62;100.00;92268.63;2519558;23;20013;-83
2023/01/08 06:26:25;;;;;;;2.60;2.40;;;;;;;3.59;100.00;92269.38;2519464;23;20002;-83
2023/01/08 06:27:26;;;;;;;2.08;1.45;;;;;;;3.58;100.00;92266.00;2507740;23;20006;-83
2023/01/08 06:28:26;;;;;;;2.60;1.30;;;;;;;3.55;100.00;92253.56;2519965;23;20327;-83
2023/01/08 06:29:27;;;;;;;1.90;1.30;;;;;;;3.56;100.00;92260.38;2519590;23;20002;-84
2023/01/08 06:30:28;;;;;;;1.60;1.50;;;;;;;3.64;100.00;92258.38;2507924;23;20007;-83
2023/01/08 06:31:29;;;;;;;2.60;1.30;;;;;;;3.67;100.00;92250.44;2519397;23;20034;-83
2023/01/08 06:32:30;;;;;;;1.10;1.00;;;;;;;3.69;100.00;92263.28;2519349;23;20454;-83
2023/01/08 06:33:31;;;;;;;3.05;1.80;;;;;;;3.68;100.00;92253.81;2507547;23;20003;-84
2023/01/08 06:34:32;;;;;;;5.43;1.33;;;;;;;3.74;100.00;92257.56;2507739;23;20463;-83
2023/01/08 06:35:33;;;;;;;1.23;1.08;;;;;;;3.69;100.00;92247.41;2531757;23;20005;-83
2023/01/08 06:36:34;;;;;;;4.40;2.00;;;;;;;3.68;100.00;92261.75;2508027;23;20026;-83
2023/01/08 06:37:35;;;;;;;1.73;1.48;;;;;;;3.62;100.00;92252.75;2519831;23;20426;-83
2023/01/08 06:38:41;;;;;;;1.45;1.33;;;;;;;3.58;100.00;92258.06;2531436;23;20010;-83
2023/01/08 06:39:42;;;;;;;6.03;3.30;;;;;;;3.64;100.00;92264.41;2532666;23;20021;-83
2023/01/08 06:40:44;;;;;;;2.10;1.85;;;;;;;3.60;100.00;92262.97;2519791;23;20653;-83
2023/01/08 06:41:45;;;;;;;1.40;1.30;;;;;;;3.68;100.00;92256.47;2508550;23;20334;-83
2023/01/08 06:42:46;;;;;;;2.35;1.52;;;;;;;3.66;100.00;92258.75;2508233;23;20066;-82
2023/01/08 06:43:47;;;;;;;1.75;1.60;;;;;;;3.62;100.00;92255.41;2507786;23;20026;-83
2023/01/08 06:44:48;;;;;;;3.55;2.17;;;;;;;3.59;100.00;92256.94;2507577;23;20030;-83
2023/01/08 06:45:54;;;;;;;5.25;1.95;;;;;;;3.60;100.00;92257.66;2531770;23;20006;-83
2023/01/08 06:46:55;;;;;;;2.60;2.40;;;;;;;3.63;100.00;92248.97;2544027;23;20008;-83
2023/01/08 06:48:03;;;;;;;2.35;2.03;;;;;;;3.59;100.00;92243.72;2519743;23;20105;-83
2023/01/08 06:49:04;;;;;;;1.95;1.85;;;;;;;3.67;100.00;92247.03;2521112;23;20012;-83
2023/01/08 06:50:06;;;;;;;2.13;1.38;;;;;;;3.61;100.00;92240.69;2507977;23;20011;-83
2023/01/08 06:51:07;;;;;;;1.30;1.10;;;;;;;3.60;100.00;92242.59;2508148;23;20665;-83
2023/01/08 06:52:08;;;;;;;2.17;1.40;;;;;;;3.62;100.00;92242.19;2519604;23;20104;-84
2023/01/08 06:53:09;;;;;;;2.25;1.88;;;;;;;3.68;100.00;92243.25;2519701;23;20009;-83
2023/01/08 06:54:10;;;;;;;4.40;3.65;;;;;;;3.94;100.00;92247.13;2519693;23;20065;-83
2023/01/08 06:55:11;;;;;;;10.73;7.00;;;;;;;3.91;100.00;92242.66;2519644;23;20608;-82
2023/01/08 06:56:12;;;;;;;6.60;4.03;;;;;;;3.89;100.00;92239.63;2507315;23;20003;-83
2023/01/08 06:57:13;;;;;;;5.45;4.10;;;;;;;3.83;100.00;92243.88;2519671;23;20264;-83
2023/01/08 06:58:14;;;;;;;3.05;2.75;;;;;;;3.78;100.00;92240.50;2519955;23;20014;-83
2023/01/08 06:59:15;;;;;;;3.95;3.10;;;;;;;3.79;100.00;92242.00;2507810;23;20034;-84
2023/01/08 07:00:16;;;;;;;5.68;5.20;;;;;;;3.77;100.00;92246.91;2519833;23;20040;-83
2023/01/08 07:01:17;;;;;;;4.32;3.13;;;;;;;3.76;100.00;92249.97;2531720;23;20009;-84
2023/01/08 07:02:18;;;;;;;3.70;2.65;;;;;;;3.75;100.00;92243.19;2507649;23;20427;-84
2023/01/08 07:03:19;;;;;;;3.88;2.70;;;;;;;3.93;100.00;92249.03;2519477;23;20002;-83
2023/01/08 07:04:37;;;;;;;3.85;3.47;;;;;;;3.87;100.00;92247.22;2519914;23;20033;-82
2023/01/08 07:05:38;;;;;;;2.45;2.13;;;;;;;3.80;100.00;92250.69;2515620;23;20014;-84
2023/01/08 07:06:39;;;;;;;2.88;2.67;;;;;;;3.72;100.00;92251.91;2520580;23;20002;-83
2023/01/08 07:07:40;;;;;;;4.47;2.50;;;;;;;3.73;100.00;92253.38;2520607;23;20390;-83
2023/01/08 07:08:42;;;;;;;3.33;3.03;;;;;;;3.88;100.00;92251.38;2532421;23;20009;-83
2023/01/08 07:09:43;;;;;;;2.28;1.85;;;;;;;3.81;100.00;92252.19;2532118;23;20037;-82
2023/01/08 07:10:45;;;;;;;2.10;1.90;;;;;;;4.01;100.00;92252.34;2520666;23;20003;-83
2023/01/08 07:11:46;;;;;;;3.80;2.42;;;;;;;4.12;100.00;92262.81;2520478;23;20319;-82
2023/01/08 07:12:48;;;;;;;3.08;2.78;;;;;;;3.91;100.00;92250.59;2508716;23;20011;-83
2023/01/08 07:13:49;;;;;;;2.80;2.25;;;;;;;3.99;100.00;92258.03;2520492;23;20006;-83
2023/01/08 07:14:50;;;;;;;4.68;4.28;;;;;;;3.96;100.00;92256.19;2508595;23;20486;-83
2023/01/08 07:15:51;;;;;;;5.40;4.93;;;;;;;4.02;100.00;92259.88;2508103;23;20022;-83
2023/01/08 07:16:52;;;;;;;2.78;2.58;;;;;;;3.95;100.00;92257.34;2520321;23;20370;-83
2023/01/08 07:17:53;;;;;;;4.25;2.47;;;;;;;3.84;100.00;92253.28;2532222;23;20009;-84
2023/01/08 07:18:54;;;;;;;5.30;1.60;;;;;;;3.95;100.00;92253.91;2520299;23;20002;-83
2023/01/08 07:19:55;;;;;;;2.20;1.40;;;;;;;3.77;100.00;92249.56;2520560;23;20040;-83
2023/01/08 07:20:56;;;;;;;1.80;1.70;;;;;;;3.76;100.00;92247.31;2520380;23;20054;-83
2023/01/08 07:21:57;;;;;;;3.20;1.70;;;;;;;3.76;100.00;92255.25;2520309;23;20006;-82
2023/01/08 07:23:06;;;;;;;1.63;1.52;;;;;;;3.74;100.00;92260.19;2508214;23;20010;-83
2023/01/08 07:24:07;;;;;;;2.20;1.20;;;;;;;3.77;100.00;92249.56;2523321;23;20029;-83
2023/01/08 07:25:09;;;;;;;1.83;1.73;;;;;;;4.00;100.00;92251.59;2520112;23;20061;-84
2023/01/08 07:26:10;;;;;;;2.90;1.90;;;;;;;3.93;100.00;92243.75;2508274;23;20007;-82
2023/01/08 07:27:11;;;;;;;2.28;1.50;;;;;;;4.01;100.00;92247.81;2519158;23;20089;-83
2023/01/08 07:28:12;;;;;;;4.05;1.98;;;;;;;3.96;100.00;92250.16;2519324;23;20022;-83